sensor_id;sensor_type;location;lat;lon;timestamp;P1;durP1;ratioP1;P2;durP2;ratioP2
21426;SDS011;10874;49.452;11.050;2023-07-20T00:00:03;5.90;;;4.07;;
21426;SDS011;10874;49.452;11.050;2023-07-20T00:02:38;6.07;;;3.43;;
21426;SDS011;10874;49.452;11.050;2023-07-20T00:05:05;5.80;;;3.30;;
21426;SDS011;10874;49.452;11.050;2023-07-20T00:07:32;5.93;;;3.70;;
21426;SDS011;10874;49.452;11.050;2023-07-20T00:09:59;4.67;;;3.57;;
21426;SDS011;10874;49.452;11.050;2023-07-20T00:12:26;3.97;;;3.40;;
21426;SDS011;10874;49.452;11.050;2023-07-20T00:14:53;4.83;;;3.63;;
21426;SDS011;10874;49.452;11.050;2023-07-20T00:17:20;5.83;;;3.67;;
21426;SDS011;10874;49.452;11.050;2023-07-20T00:19:47;5.93;;;4.00;;
21426;SDS011;10874;49.452;11.050;2023-07-20T00:22:14;4.93;;;3.63;;
21426;SDS011;10874;49.452;11.050;2023-07-20T00:24:41;4.80;;;3.67;;
21426;SDS011;10874;49.452;11.050;2023-07-20T00:27:07;5.20;;;3.43;;
21426;SDS011;10874;49.452;11.050;2023-07-20T00:29:35;6.63;;;3.50;;
21426;SDS011;10874;49.452;11.050;2023-07-20T00:32:02;3.83;;;3.53;;
21426;SDS011;10874;49.452;11.050;2023-07-20T00:34:31;3.80;;;3.40;;
21426;SDS011;10874;49.452;11.050;2023-07-20T00:36:58;4.87;;;3.73;;
21426;SDS011;10874;49.452;11.050;2023-07-20T00:39:25;4.43;;;3.40;;
21426;SDS011;10874;49.452;11.050;2023-07-20T00:41:51;3.90;;;3.60;;
21426;SDS011;10874;49.452;11.050;2023-07-20T00:44:18;4.10;;;3.70;;
21426;SDS011;10874;49.452;11.050;2023-07-20T00:46:45;4.37;;;3.97;;
21426;SDS011;10874;49.452;11.050;2023-07-20T00:49:13;5.43;;;3.40;;
21426;SDS011;10874;49.452;11.050;2023-07-20T00:51:40;3.80;;;3.30;;
21426;SDS011;10874;49.452;11.050;2023-07-20T00:54:08;4.33;;;3.40;;
21426;SDS011;10874;49.452;11.050;2023-07-20T00:56:35;7.43;;;3.67;;
21426;SDS011;10874;49.452;11.050;2023-07-20T00:59:02;5.07;;;3.10;;
21426;SDS011;10874;49.452;11.050;2023-07-20T01:01:29;4.83;;;3.70;;
21426;SDS011;10874;49.452;11.050;2023-07-20T01:04:08;7.13;;;3.90;;
21426;SDS011;10874;49.452;11.050;2023-07-20T01:09:16;7.63;;;3.73;;
21426;SDS011;10874;49.452;11.050;2023-07-20T01:11:54;6.17;;;4.10;;
21426;SDS011;10874;49.452;11.050;2023-07-20T01:14:23;4.97;;;3.60;;
21426;SDS011;10874;49.452;11.050;2023-07-20T01:16:50;7.03;;;3.87;;
21426;SDS011;10874;49.452;11.050;2023-07-20T01:19:18;6.10;;;3.90;;
21426;SDS011;10874;49.452;11.050;2023-07-20T01:22:07;4.40;;;3.23;;
21426;SDS011;10874;49.452;11.050;2023-07-20T01:32:15;5.47;;;3.93;;
21426;SDS011;10874;49.452;11.050;2023-07-20T01:34:43;4.97;;;4.10;;
21426;SDS011;10874;49.452;11.050;2023-07-20T01:37:10;5.90;;;3.43;;
21426;SDS011;10874;49.452;11.050;2023-07-20T01:39:38;4.97;;;3.60;;
21426;SDS011;10874;49.452;11.050;2023-07-20T01:42:05;5.37;;;3.80;;
21426;SDS011;10874;49.452;11.050;2023-07-20T01:44:32;8.00;;;4.20;;
21426;SDS011;10874;49.452;11.050;2023-07-20T01:46:59;7.17;;;3.93;;
21426;SDS011;10874;49.452;11.050;2023-07-20T01:49:26;4.50;;;3.70;;
21426;SDS011;10874;49.452;11.050;2023-07-20T01:51:52;5.50;;;3.70;;
21426;SDS011;10874;49.452;11.050;2023-07-20T01:54:19;4.40;;;3.40;;
21426;SDS011;10874;49.452;11.050;2023-07-20T01:56:46;4.67;;;3.80;;
21426;SDS011;10874;49.452;11.050;2023-07-20T01:59:13;5.53;;;3.80;;
21426;SDS011;10874;49.452;11.050;2023-07-20T02:01:40;6.90;;;4.00;;
21426;SDS011;10874;49.452;11.050;2023-07-20T02:04:07;5.63;;;4.20;;
21426;SDS011;10874;49.452;11.050;2023-07-20T02:06:33;5.00;;;3.67;;
21426;SDS011;10874;49.452;11.050;2023-07-20T02:09:00;5.30;;;4.23;;
21426;SDS011;10874;49.452;11.050;2023-07-20T02:11:30;5.00;;;3.93;;
21426;SDS011;10874;49.452;11.050;2023-07-20T02:13:57;5.50;;;3.87;;
21426;SDS011;10874;49.452;11.050;2023-07-20T02:16:24;7.53;;;3.80;;
21426;SDS011;10874;49.452;11.050;2023-07-20T02:18:52;6.60;;;4.03;;
21426;SDS011;10874;49.452;11.050;2023-07-20T02:21:19;5.33;;;4.07;;
21426;SDS011;10874;49.452;11.050;2023-07-20T02:23:46;6.90;;;3.57;;
21426;SDS011;10874;49.452;11.050;2023-07-20T02:26:12;7.53;;;4.17;;
21426;SDS011;10874;49.452;11.050;2023-07-20T02:28:39;5.20;;;4.47;;
21426;SDS011;10874;49.452;11.050;2023-07-20T02:31:06;4.73;;;3.90;;
21426;SDS011;10874;49.452;11.050;2023-07-20T02:33:33;6.40;;;4.27;;
21426;SDS011;10874;49.452;11.050;2023-07-20T02:36:00;7.80;;;4.57;;
21426;SDS011;10874;49.452;11.050;2023-07-20T02:38:26;6.67;;;4.13;;
21426;SDS011;10874;49.452;11.050;2023-07-20T02:40:53;5.37;;;4.07;;
21426;SDS011;10874;49.452;11.050;2023-07-20T02:43:20;7.17;;;4.30;;
21426;SDS011;10874;49.452;11.050;2023-07-20T02:45:47;5.53;;;4.70;;
21426;SDS011;10874;49.452;11.050;2023-07-20T02:48:14;6.90;;;4.47;;
21426;SDS011;10874;49.452;11.050;2023-07-20T02:50:41;5.20;;;3.73;;
21426;SDS011;10874;49.452;11.050;2023-07-20T02:53:07;5.43;;;4.50;;
21426;SDS011;10874;49.452;11.050;2023-07-20T02:55:34;6.60;;;4.20;;
21426;SDS011;10874;49.452;11.050;2023-07-20T02:58:01;6.10;;;4.17;;
21426;SDS011;10874;49.452;11.050;2023-07-20T03:00:27;5.37;;;4.23;;
21426;SDS011;10874;49.452;11.050;2023-07-20T03:02:54;7.33;;;4.73;;
21426;SDS011;10874;49.452;11.050;2023-07-20T03:05:22;4.40;;;3.90;;
21426;SDS011;10874;49.452;11.050;2023-07-20T03:07:51;5.40;;;4.10;;
21426;SDS011;10874;49.452;11.050;2023-07-20T03:10:18;5.87;;;4.50;;
21426;SDS011;10874;49.452;11.050;2023-07-20T03:12:45;5.60;;;4.10;;
21426;SDS011;10874;49.452;11.050;2023-07-20T03:15:12;7.83;;;4.13;;
21426;SDS011;10874;49.452;11.050;2023-07-20T03:17:39;6.60;;;4.13;;
21426;SDS011;10874;49.452;11.050;2023-07-20T03:20:06;5.80;;;3.73;;
21426;SDS011;10874;49.452;11.050;2023-07-20T03:22:36;6.17;;;3.70;;
21426;SDS011;10874;49.452;11.050;2023-07-20T03:25:03;5.87;;;3.73;;
21426;SDS011;10874;49.452;11.050;2023-07-20T03:27:31;5.13;;;3.73;;
21426;SDS011;10874;49.452;11.050;2023-07-20T03:29:59;4.23;;;3.57;;
21426;SDS011;10874;49.452;11.050;2023-07-20T03:32:26;7.17;;;3.90;;
21426;SDS011;10874;49.452;11.050;2023-07-20T03:34:53;5.27;;;3.80;;
21426;SDS011;10874;49.452;11.050;2023-07-20T03:37:21;6.20;;;4.10;;
21426;SDS011;10874;49.452;11.050;2023-07-20T03:39:48;6.30;;;3.90;;
21426;SDS011;10874;49.452;11.050;2023-07-20T03:42:15;7.40;;;3.97;;
21426;SDS011;10874;49.452;11.050;2023-07-20T03:44:42;6.43;;;3.83;;
21426;SDS011;10874;49.452;11.050;2023-07-20T03:47:08;4.23;;;3.80;;
21426;SDS011;10874;49.452;11.050;2023-07-20T03:49:35;5.67;;;3.70;;
21426;SDS011;10874;49.452;11.050;2023-07-20T03:52:02;5.90;;;3.70;;
21426;SDS011;10874;49.452;11.050;2023-07-20T03:54:32;5.97;;;2.93;;
21426;SDS011;10874;49.452;11.050;2023-07-20T03:56:59;9.27;;;3.83;;
21426;SDS011;10874;49.452;11.050;2023-07-20T03:59:27;6.40;;;3.87;;
21426;SDS011;10874;49.452;11.050;2023-07-20T04:01:54;5.30;;;3.27;;
21426;SDS011;10874;49.452;11.050;2023-07-20T04:04:20;9.13;;;3.67;;
21426;SDS011;10874;49.452;11.050;2023-07-20T04:06:47;6.87;;;3.53;;
21426;SDS011;10874;49.452;11.050;2023-07-20T04:09:14;5.97;;;3.60;;
21426;SDS011;10874;49.452;11.050;2023-07-20T04:11:41;4.97;;;3.50;;
21426;SDS011;10874;49.452;11.050;2023-07-20T04:14:07;7.80;;;3.50;;
21426;SDS011;10874;49.452;11.050;2023-07-20T04:16:34;7.10;;;3.37;;
21426;SDS011;10874;49.452;11.050;2023-07-20T04:19:01;8.67;;;3.30;;
21426;SDS011;10874;49.452;11.050;2023-07-20T04:21:27;4.50;;;3.30;;
21426;SDS011;10874;49.452;11.050;2023-07-20T04:23:55;4.90;;;3.73;;
21426;SDS011;10874;49.452;11.050;2023-07-20T04:26:22;5.10;;;3.50;;
21426;SDS011;10874;49.452;11.050;2023-07-20T04:28:49;6.27;;;3.90;;
21426;SDS011;10874;49.452;11.050;2023-07-20T04:31:29;4.60;;;3.30;;
21426;SDS011;10874;49.452;11.050;2023-07-20T04:33:58;5.00;;;3.40;;
21426;SDS011;10874;49.452;11.050;2023-07-20T04:36:26;7.20;;;4.17;;
21426;SDS011;10874;49.452;11.050;2023-07-20T04:38:54;7.87;;;3.53;;
21426;SDS011;10874;49.452;11.050;2023-07-20T04:41:22;4.80;;;3.80;;
21426;SDS011;10874;49.452;11.050;2023-07-20T04:43:51;6.20;;;3.43;;
21426;SDS011;10874;49.452;11.050;2023-07-20T04:46:27;4.17;;;3.70;;
21426;SDS011;10874;49.452;11.050;2023-07-20T04:48:54;6.70;;;3.53;;
21426;SDS011;10874;49.452;11.050;2023-07-20T04:51:22;6.13;;;3.57;;
21426;SDS011;10874;49.452;11.050;2023-07-20T04:53:53;7.77;;;3.70;;
21426;SDS011;10874;49.452;11.050;2023-07-20T04:56:19;6.80;;;3.50;;
21426;SDS011;10874;49.452;11.050;2023-07-20T04:58:48;5.40;;;3.50;;
21426;SDS011;10874;49.452;11.050;2023-07-20T05:01:14;5.23;;;3.70;;
21426;SDS011;10874;49.452;11.050;2023-07-20T05:03:41;7.17;;;4.00;;
21426;SDS011;10874;49.452;11.050;2023-07-20T05:06:09;6.57;;;3.70;;
21426;SDS011;10874;49.452;11.050;2023-07-20T05:08:36;7.00;;;3.30;;
21426;SDS011;10874;49.452;11.050;2023-07-20T05:11:03;5.33;;;3.57;;
21426;SDS011;10874;49.452;11.050;2023-07-20T05:13:30;5.93;;;3.33;;
21426;SDS011;10874;49.452;11.050;2023-07-20T05:15:57;7.57;;;3.70;;
21426;SDS011;10874;49.452;11.050;2023-07-20T05:18:24;4.60;;;3.47;;
21426;SDS011;10874;49.452;11.050;2023-07-20T05:20:51;7.40;;;3.30;;
21426;SDS011;10874;49.452;11.050;2023-07-20T05:23:19;5.70;;;3.10;;
21426;SDS011;10874;49.452;11.050;2023-07-20T05:25:55;9.10;;;3.57;;
21426;SDS011;10874;49.452;11.050;2023-07-20T05:28:23;6.83;;;3.67;;
21426;SDS011;10874;49.452;11.050;2023-07-20T05:30:50;7.10;;;3.37;;
21426;SDS011;10874;49.452;11.050;2023-07-20T05:33:19;7.47;;;3.63;;
21426;SDS011;10874;49.452;11.050;2023-07-20T05:35:46;5.03;;;3.37;;
21426;SDS011;10874;49.452;11.050;2023-07-20T05:38:13;7.87;;;3.47;;
21426;SDS011;10874;49.452;11.050;2023-07-20T05:40:40;6.40;;;3.30;;
21426;SDS011;10874;49.452;11.050;2023-07-20T05:43:07;7.53;;;3.20;;
21426;SDS011;10874;49.452;11.050;2023-07-20T05:45:34;6.73;;;3.50;;
21426;SDS011;10874;49.452;11.050;2023-07-20T05:48:00;5.03;;;3.20;;
21426;SDS011;10874;49.452;11.050;2023-07-20T05:50:27;7.77;;;3.40;;
21426;SDS011;10874;49.452;11.050;2023-07-20T05:52:54;6.70;;;3.17;;
21426;SDS011;10874;49.452;11.050;2023-07-20T05:55:21;5.10;;;2.93;;
21426;SDS011;10874;49.452;11.050;2023-07-20T05:57:48;6.83;;;3.23;;
21426;SDS011;10874;49.452;11.050;2023-07-20T06:00:16;6.13;;;2.93;;
21426;SDS011;10874;49.452;11.050;2023-07-20T06:02:46;6.40;;;2.83;;
21426;SDS011;10874;49.452;11.050;2023-07-20T06:05:14;4.30;;;2.70;;
21426;SDS011;10874;49.452;11.050;2023-07-20T06:07:41;6.13;;;2.47;;
21426;SDS011;10874;49.452;11.050;2023-07-20T06:10:08;6.83;;;2.77;;
21426;SDS011;10874;49.452;11.050;2023-07-20T06:12:35;7.50;;;2.60;;
21426;SDS011;10874;49.452;11.050;2023-07-20T06:15:02;4.93;;;3.10;;
21426;SDS011;10874;49.452;11.050;2023-07-20T06:17:29;4.70;;;2.47;;
21426;SDS011;10874;49.452;11.050;2023-07-20T06:19:56;4.30;;;2.73;;
21426;SDS011;10874;49.452;11.050;2023-07-20T06:22:23;5.73;;;2.80;;
21426;SDS011;10874;49.452;11.050;2023-07-20T06:24:50;4.80;;;2.40;;
21426;SDS011;10874;49.452;11.050;2023-07-20T06:27:17;4.47;;;2.60;;
21426;SDS011;10874;49.452;11.050;2023-07-20T06:29:43;4.53;;;3.10;;
21426;SDS011;10874;49.452;11.050;2023-07-20T06:32:10;6.80;;;2.93;;
21426;SDS011;10874;49.452;11.050;2023-07-20T06:34:37;6.17;;;3.10;;
21426;SDS011;10874;49.452;11.050;2023-07-20T06:37:04;4.67;;;3.00;;
21426;SDS011;10874;49.452;11.050;2023-07-20T06:39:31;5.37;;;2.80;;
21426;SDS011;10874;49.452;11.050;2023-07-20T06:42:01;7.50;;;2.60;;
21426;SDS011;10874;49.452;11.050;2023-07-20T06:44:27;4.03;;;2.77;;
21426;SDS011;10874;49.452;11.050;2023-07-20T06:46:54;6.70;;;3.40;;
21426;SDS011;10874;49.452;11.050;2023-07-20T06:49:25;3.63;;;2.53;;
21426;SDS011;10874;49.452;11.050;2023-07-20T06:51:52;5.93;;;2.67;;
21426;SDS011;10874;49.452;11.050;2023-07-20T06:54:19;2.90;;;2.70;;
21426;SDS011;10874;49.452;11.050;2023-07-20T06:56:49;6.10;;;2.70;;
21426;SDS011;10874;49.452;11.050;2023-07-20T06:59:36;4.67;;;2.93;;
21426;SDS011;10874;49.452;11.050;2023-07-20T07:02:07;5.83;;;3.13;;
21426;SDS011;10874;49.452;11.050;2023-07-20T07:04:41;5.73;;;3.00;;
21426;SDS011;10874;49.452;11.050;2023-07-20T07:07:07;4.10;;;2.83;;
21426;SDS011;10874;49.452;11.050;2023-07-20T07:09:35;5.30;;;3.27;;
21426;SDS011;10874;49.452;11.050;2023-07-20T07:12:03;3.97;;;2.60;;
21426;SDS011;10874;49.452;11.050;2023-07-20T07:14:30;5.53;;;2.70;;
21426;SDS011;10874;49.452;11.050;2023-07-20T07:16:59;2.43;;;2.23;;
21426;SDS011;10874;49.452;11.050;2023-07-20T07:19:29;2.43;;;2.23;;
21426;SDS011;10874;49.452;11.050;2023-07-20T07:21:56;5.23;;;2.53;;
21426;SDS011;10874;49.452;11.050;2023-07-20T07:24:26;4.90;;;2.57;;
21426;SDS011;10874;49.452;11.050;2023-07-20T07:26:54;5.70;;;2.20;;
21426;SDS011;10874;49.452;11.050;2023-07-20T07:29:21;3.80;;;2.60;;
21426;SDS011;10874;49.452;11.050;2023-07-20T07:31:47;4.47;;;2.80;;
21426;SDS011;10874;49.452;11.050;2023-07-20T07:34:14;2.70;;;2.20;;
21426;SDS011;10874;49.452;11.050;2023-07-20T07:36:41;5.47;;;2.63;;
21426;SDS011;10874;49.452;11.050;2023-07-20T07:39:08;4.53;;;2.63;;
21426;SDS011;10874;49.452;11.050;2023-07-20T07:41:38;3.93;;;2.50;;
21426;SDS011;10874;49.452;11.050;2023-07-20T07:44:05;5.10;;;2.70;;
21426;SDS011;10874;49.452;11.050;2023-07-20T07:46:32;2.90;;;2.37;;
21426;SDS011;10874;49.452;11.050;2023-07-20T07:48:59;5.10;;;2.47;;
21426;SDS011;10874;49.452;11.050;2023-07-20T07:51:26;3.33;;;2.50;;
21426;SDS011;10874;49.452;11.050;2023-07-20T07:53:53;4.40;;;2.30;;
21426;SDS011;10874;49.452;11.050;2023-07-20T07:56:20;4.07;;;2.07;;
21426;SDS011;10874;49.452;11.050;2023-07-20T07:58:51;4.70;;;2.33;;
21426;SDS011;10874;49.452;11.050;2023-07-20T08:01:20;3.17;;;2.27;;
21426;SDS011;10874;49.452;11.050;2023-07-20T08:03:48;4.83;;;2.43;;
21426;SDS011;10874;49.452;11.050;2023-07-20T08:06:15;4.03;;;2.60;;
21426;SDS011;10874;49.452;11.050;2023-07-20T08:08:41;3.73;;;2.37;;
21426;SDS011;10874;49.452;11.050;2023-07-20T08:11:11;3.63;;;2.43;;
21426;SDS011;10874;49.452;11.050;2023-07-20T08:13:41;3.57;;;2.43;;
21426;SDS011;10874;49.452;11.050;2023-07-20T08:16:08;3.17;;;2.37;;
21426;SDS011;10874;49.452;11.050;2023-07-20T08:18:35;3.93;;;2.43;;
21426;SDS011;10874;49.452;11.050;2023-07-20T08:21:02;3.87;;;2.33;;
21426;SDS011;10874;49.452;11.050;2023-07-20T08:23:29;2.87;;;2.10;;
21426;SDS011;10874;49.452;11.050;2023-07-20T08:25:56;4.00;;;2.33;;
21426;SDS011;10874;49.452;11.050;2023-07-20T08:28:23;4.20;;;2.00;;
21426;SDS011;10874;49.452;11.050;2023-07-20T08:30:50;2.90;;;2.10;;
21426;SDS011;10874;49.452;11.050;2023-07-20T08:33:17;4.73;;;2.40;;
21426;SDS011;10874;49.452;11.050;2023-07-20T08:35:47;2.97;;;2.30;;
21426;SDS011;10874;49.452;11.050;2023-07-20T08:38:14;5.60;;;2.13;;
21426;SDS011;10874;49.452;11.050;2023-07-20T08:40:41;5.60;;;2.10;;
21426;SDS011;10874;49.452;11.050;2023-07-20T08:43:10;4.67;;;1.93;;
21426;SDS011;10874;49.452;11.050;2023-07-20T08:45:38;3.90;;;2.07;;
21426;SDS011;10874;49.452;11.050;2023-07-20T08:48:05;2.20;;;2.00;;
21426;SDS011;10874;49.452;11.050;2023-07-20T08:50:32;3.07;;;2.03;;
21426;SDS011;10874;49.452;11.050;2023-07-20T08:53:00;4.33;;;2.00;;
21426;SDS011;10874;49.452;11.050;2023-07-20T08:55:27;5.43;;;2.20;;
21426;SDS011;10874;49.452;11.050;2023-07-20T08:57:54;3.43;;;1.73;;
21426;SDS011;10874;49.452;11.050;2023-07-20T09:00:22;4.20;;;1.93;;
21426;SDS011;10874;49.452;11.050;2023-07-20T09:02:49;4.30;;;1.80;;
21426;SDS011;10874;49.452;11.050;2023-07-20T09:05:22;3.90;;;1.70;;
21426;SDS011;10874;49.452;11.050;2023-07-20T09:07:51;1.97;;;1.63;;
21426;SDS011;10874;49.452;11.050;2023-07-20T09:10:20;4.13;;;1.80;;
21426;SDS011;10874;49.452;11.050;2023-07-20T09:12:47;4.47;;;2.20;;
21426;SDS011;10874;49.452;11.050;2023-07-20T09:15:14;2.23;;;1.70;;
21426;SDS011;10874;49.452;11.050;2023-07-20T09:17:48;3.20;;;1.90;;
21426;SDS011;10874;49.452;11.050;2023-07-20T09:20:16;6.10;;;1.83;;
21426;SDS011;10874;49.452;11.050;2023-07-20T09:22:47;2.47;;;1.80;;
21426;SDS011;10874;49.452;11.050;2023-07-20T09:25:14;3.03;;;1.83;;
21426;SDS011;10874;49.452;11.050;2023-07-20T09:27:43;4.40;;;2.07;;
21426;SDS011;10874;49.452;11.050;2023-07-20T09:30:10;2.77;;;1.77;;
21426;SDS011;10874;49.452;11.050;2023-07-20T09:32:45;3.10;;;1.63;;
21426;SDS011;10874;49.452;11.050;2023-07-20T09:35:18;3.57;;;1.90;;
21426;SDS011;10874;49.452;11.050;2023-07-20T09:37:58;1.77;;;1.60;;
21426;SDS011;10874;49.452;11.050;2023-07-20T09:40:28;2.77;;;1.90;;
21426;SDS011;10874;49.452;11.050;2023-07-20T09:42:58;3.63;;;1.60;;
21426;SDS011;10874;49.452;11.050;2023-07-20T09:45:33;2.37;;;1.60;;
21426;SDS011;10874;49.452;11.050;2023-07-20T09:48:04;2.20;;;1.50;;
21426;SDS011;10874;49.452;11.050;2023-07-20T09:50:41;4.23;;;1.90;;
21426;SDS011;10874;49.452;11.050;2023-07-20T09:53:11;2.50;;;1.60;;
21426;SDS011;10874;49.452;11.050;2023-07-20T09:55:39;3.00;;;1.60;;
21426;SDS011;10874;49.452;11.050;2023-07-20T09:58:06;2.43;;;1.37;;
21426;SDS011;10874;49.452;11.050;2023-07-20T10:00:38;2.97;;;1.50;;
21426;SDS011;10874;49.452;11.050;2023-07-20T10:03:08;1.30;;;1.10;;
21426;SDS011;10874;49.452;11.050;2023-07-20T10:05:39;2.07;;;1.20;;
21426;SDS011;10874;49.452;11.050;2023-07-20T10:08:06;1.93;;;1.27;;
21426;SDS011;10874;49.452;11.050;2023-07-20T10:10:41;2.53;;;1.30;;
21426;SDS011;10874;49.452;11.050;2023-07-20T10:13:08;1.83;;;1.60;;
21426;SDS011;10874;49.452;11.050;2023-07-20T10:15:37;2.77;;;1.50;;
21426;SDS011;10874;49.452;11.050;2023-07-20T10:18:12;1.53;;;1.40;;
21426;SDS011;10874;49.452;11.050;2023-07-20T10:20:41;2.07;;;1.37;;
21426;SDS011;10874;49.452;11.050;2023-07-20T10:23:29;3.90;;;1.50;;
21426;SDS011;10874;49.452;11.050;2023-07-20T10:25:56;1.80;;;1.43;;
21426;SDS011;10874;49.452;11.050;2023-07-20T10:28:24;1.80;;;1.40;;
21426;SDS011;10874;49.452;11.050;2023-07-20T10:30:52;2.37;;;1.63;;
21426;SDS011;10874;49.452;11.050;2023-07-20T10:33:19;2.30;;;1.63;;
21426;SDS011;10874;49.452;11.050;2023-07-20T10:35:56;1.73;;;1.47;;
21426;SDS011;10874;49.452;11.050;2023-07-20T10:39:10;1.87;;;1.40;;
21426;SDS011;10874;49.452;11.050;2023-07-20T10:41:17;4.70;;;1.73;;
21426;SDS011;10874;49.452;11.050;2023-07-20T10:43:46;1.93;;;1.50;;
21426;SDS011;10874;49.452;11.050;2023-07-20T10:46:13;4.57;;;2.17;;
21426;SDS011;10874;49.452;11.050;2023-07-20T10:48:59;1.97;;;1.70;;
21426;SDS011;10874;49.452;11.050;2023-07-20T10:51:26;1.80;;;1.57;;
21426;SDS011;10874;49.452;11.050;2023-07-20T10:53:56;2.73;;;1.27;;
21426;SDS011;10874;49.452;11.050;2023-07-20T10:56:26;1.60;;;1.50;;
21426;SDS011;10874;49.452;11.050;2023-07-20T10:58:59;4.37;;;1.60;;
21426;SDS011;10874;49.452;11.050;2023-07-20T11:01:29;2.37;;;1.60;;
21426;SDS011;10874;49.452;11.050;2023-07-20T11:03:59;4.70;;;2.00;;
21426;SDS011;10874;49.452;11.050;2023-07-20T11:06:29;1.87;;;1.37;;
21426;SDS011;10874;49.452;11.050;2023-07-20T11:09:11;1.30;;;1.20;;
21426;SDS011;10874;49.452;11.050;2023-07-20T11:11:41;2.03;;;1.57;;
21426;SDS011;10874;49.452;11.050;2023-07-20T11:14:19;1.77;;;1.60;;
21426;SDS011;10874;49.452;11.050;2023-07-20T11:16:47;3.77;;;1.60;;
21426;SDS011;10874;49.452;11.050;2023-07-20T11:19:15;2.93;;;1.63;;
21426;SDS011;10874;49.452;11.050;2023-07-20T11:22:02;1.87;;;1.43;;
21426;SDS011;10874;49.452;11.050;2023-07-20T11:24:31;1.73;;;1.53;;
21426;SDS011;10874;49.452;11.050;2023-07-20T11:26:58;1.63;;;1.47;;
21426;SDS011;10874;49.452;11.050;2023-07-20T11:29:25;1.47;;;1.37;;
21426;SDS011;10874;49.452;11.050;2023-07-20T11:31:59;2.23;;;1.40;;
21426;SDS011;10874;49.452;11.050;2023-07-20T11:34:26;2.47;;;1.63;;
21426;SDS011;10874;49.452;11.050;2023-07-20T11:36:54;3.43;;;1.50;;
21426;SDS011;10874;49.452;11.050;2023-07-20T11:39:24;2.07;;;1.53;;
21426;SDS011;10874;49.452;11.050;2023-07-20T11:41:53;3.83;;;2.90;;
21426;SDS011;10874;49.452;11.050;2023-07-20T11:44:21;4.40;;;4.00;;
21426;SDS011;10874;49.452;11.050;2023-07-20T11:47:28;3.33;;;2.23;;
21426;SDS011;10874;49.452;11.050;2023-07-20T11:49:46;2.03;;;1.40;;
21426;SDS011;10874;49.452;11.050;2023-07-20T11:52:17;1.67;;;1.50;;
21426;SDS011;10874;49.452;11.050;2023-07-20T11:54:44;1.50;;;1.40;;
21426;SDS011;10874;49.452;11.050;2023-07-20T11:57:18;2.10;;;1.50;;
21426;SDS011;10874;49.452;11.050;2023-07-20T11:59:58;2.97;;;1.40;;
21426;SDS011;10874;49.452;11.050;2023-07-20T12:02:26;1.77;;;1.10;;
21426;SDS011;10874;49.452;11.050;2023-07-20T12:04:54;1.47;;;1.30;;
21426;SDS011;10874;49.452;11.050;2023-07-20T12:07:21;2.03;;;1.43;;
21426;SDS011;10874;49.452;11.050;2023-07-20T12:12:53;2.40;;;1.20;;
21426;SDS011;10874;49.452;11.050;2023-07-20T12:15:24;3.77;;;1.20;;
21426;SDS011;10874;49.452;11.050;2023-07-20T12:17:53;1.33;;;1.10;;
21426;SDS011;10874;49.452;11.050;2023-07-20T12:20:36;4.77;;;1.40;;
21426;SDS011;10874;49.452;11.050;2023-07-20T12:23:10;1.97;;;1.20;;
21426;SDS011;10874;49.452;11.050;2023-07-20T12:25:37;1.17;;;1.07;;
21426;SDS011;10874;49.452;11.050;2023-07-20T12:28:11;1.80;;;1.37;;
21426;SDS011;10874;49.452;11.050;2023-07-20T12:30:39;1.37;;;0.90;;
21426;SDS011;10874;49.452;11.050;2023-07-20T12:33:05;1.37;;;1.00;;
21426;SDS011;10874;49.452;11.050;2023-07-20T12:35:33;1.17;;;1.07;;
21426;SDS011;10874;49.452;11.050;2023-07-20T12:38:00;1.17;;;1.07;;
21426;SDS011;10874;49.452;11.050;2023-07-20T12:40:27;4.23;;;1.53;;
21426;SDS011;10874;49.452;11.050;2023-07-20T12:42:53;4.60;;;1.20;;
21426;SDS011;10874;49.452;11.050;2023-07-20T12:45:20;3.07;;;1.00;;
21426;SDS011;10874;49.452;11.050;2023-07-20T12:47:48;1.60;;;1.20;;
21426;SDS011;10874;49.452;11.050;2023-07-20T12:50:15;1.70;;;1.37;;
21426;SDS011;10874;49.452;11.050;2023-07-20T12:52:42;3.53;;;1.40;;
21426;SDS011;10874;49.452;11.050;2023-07-20T12:55:09;2.10;;;1.33;;
21426;SDS011;10874;49.452;11.050;2023-07-20T12:57:36;7.10;;;1.40;;
21426;SDS011;10874;49.452;11.050;2023-07-20T13:00:03;2.57;;;1.20;;
21426;SDS011;10874;49.452;11.050;2023-07-20T13:02:32;1.87;;;1.00;;
21426;SDS011;10874;49.452;11.050;2023-07-20T13:04:59;3.80;;;1.20;;
21426;SDS011;10874;49.452;11.050;2023-07-20T13:07:36;3.40;;;1.40;;
21426;SDS011;10874;49.452;11.050;2023-07-20T13:10:06;3.50;;;1.40;;
21426;SDS011;10874;49.452;11.050;2023-07-20T13:12:33;2.10;;;1.20;;
21426;SDS011;10874;49.452;11.050;2023-07-20T13:15:01;4.00;;;1.77;;
21426;SDS011;10874;49.452;11.050;2023-07-20T13:17:28;1.90;;;1.30;;
21426;SDS011;10874;49.452;11.050;2023-07-20T13:19:55;2.10;;;1.33;;
21426;SDS011;10874;49.452;11.050;2023-07-20T13:22:22;2.10;;;1.37;;
21426;SDS011;10874;49.452;11.050;2023-07-20T13:24:49;5.63;;;3.80;;
21426;SDS011;10874;49.452;11.050;2023-07-20T13:27:17;5.20;;;3.43;;
21426;SDS011;10874;49.452;11.050;2023-07-20T13:29:45;2.50;;;1.90;;
21426;SDS011;10874;49.452;11.050;2023-07-20T13:32:14;1.60;;;1.50;;
21426;SDS011;10874;49.452;11.050;2023-07-20T13:34:42;4.33;;;2.10;;
21426;SDS011;10874;49.452;11.050;2023-07-20T13:37:08;2.83;;;1.53;;
21426;SDS011;10874;49.452;11.050;2023-07-20T13:39:39;2.63;;;2.00;;
21426;SDS011;10874;49.452;11.050;2023-07-20T13:42:06;2.50;;;1.50;;
21426;SDS011;10874;49.452;11.050;2023-07-20T13:44:33;4.13;;;1.50;;
21426;SDS011;10874;49.452;11.050;2023-07-20T13:47:00;2.37;;;1.73;;
21426;SDS011;10874;49.452;11.050;2023-07-20T13:49:29;3.03;;;1.17;;
21426;SDS011;10874;49.452;11.050;2023-07-20T13:52:11;1.80;;;1.20;;
21426;SDS011;10874;49.452;11.050;2023-07-20T13:54:41;3.10;;;1.40;;
21426;SDS011;10874;49.452;11.050;2023-07-20T13:57:14;1.93;;;1.20;;
21426;SDS011;10874;49.452;11.050;2023-07-20T13:59:44;3.43;;;1.23;;
21426;SDS011;10874;49.452;11.050;2023-07-20T14:02:13;1.30;;;1.20;;
21426;SDS011;10874;49.452;11.050;2023-07-20T14:04:43;1.40;;;1.30;;
21426;SDS011;10874;49.452;11.050;2023-07-20T14:07:10;1.67;;;1.57;;
21426;SDS011;10874;49.452;11.050;2023-07-20T14:09:38;1.60;;;1.50;;
21426;SDS011;10874;49.452;11.050;2023-07-20T14:12:24;2.73;;;1.63;;
21426;SDS011;10874;49.452;11.050;2023-07-20T14:14:51;1.77;;;1.40;;
21426;SDS011;10874;49.452;11.050;2023-07-20T14:17:18;1.37;;;1.23;;
21426;SDS011;10874;49.452;11.050;2023-07-20T14:19:45;1.70;;;1.60;;
21426;SDS011;10874;49.452;11.050;2023-07-20T14:22:12;3.00;;;1.30;;
21426;SDS011;10874;49.452;11.050;2023-07-20T14:24:39;2.40;;;1.20;;
21426;SDS011;10874;49.452;11.050;2023-07-20T14:27:06;1.30;;;1.20;;
21426;SDS011;10874;49.452;11.050;2023-07-20T14:29:33;2.87;;;1.80;;
21426;SDS011;10874;49.452;11.050;2023-07-20T14:32:03;1.53;;;1.43;;
21426;SDS011;10874;49.452;11.050;2023-07-20T14:34:32;4.07;;;1.40;;
21426;SDS011;10874;49.452;11.050;2023-07-20T14:37:03;2.83;;;1.70;;
21426;SDS011;10874;49.452;11.050;2023-07-20T14:39:30;1.67;;;1.40;;
21426;SDS011;10874;49.452;11.050;2023-07-20T14:41:58;2.47;;;1.50;;
21426;SDS011;10874;49.452;11.050;2023-07-20T14:44:24;2.57;;;1.57;;
21426;SDS011;10874;49.452;11.050;2023-07-20T14:46:51;2.03;;;1.47;;
21426;SDS011;10874;49.452;11.050;2023-07-20T14:49:38;1.87;;;1.33;;
21426;SDS011;10874;49.452;11.050;2023-07-20T14:52:05;1.83;;;1.40;;
21426;SDS011;10874;49.452;11.050;2023-07-20T14:54:41;1.83;;;1.30;;